Time;durP1;ratioP1;P1;durP2;ratioP2;P2;SDS_P1;SDS_P2;PMS_P1;PMS_P2;Temp;Humidity;BMP_temperature;BMP_pressure;BME280_temperature;BME280_humidity;BME280_pressure;Samples;Min_cycle;Max_cycle;Signal;HPM_P1;HPM_P2
2023/03/25 00:02:19;;;;;;;8.17;7.00;;;;;;;;;;5107104;28;20207;-85
2023/03/25 00:04:49;;;;;;;8.27;6.97;;;;;;;;;;5089839;28;20207;-84
2023/03/25 00:07:17;;;;;;;7.93;6.83;;;;;;;;;;5090777;28;20175;-85
2023/03/25 00:09:43;;;;;;;9.13;6.93;;;;;;;;;;5089753;28;20234;-83
2023/03/25 00:12:09;;;;;;;7.47;6.67;;;;;;;;;;5086402;28;20188;-83
2023/03/25 00:14:35;;;;;;;9.00;6.77;;;;;;;;;;5084241;28;20699;-84
2023/03/25 00:17:02;;;;;;;7.67;6.17;;;;;;;;;;5085128;28;20204;-84
2023/03/25 00:19:29;;;;;;;8.93;6.63;;;;;;;;;;5084149;28;20190;-84
2023/03/25 00:21:55;;;;;;;7.90;6.67;;;;;;;;;;5086724;28;20575;-84
2023/03/25 00:24:21;;;;;;;7.73;6.90;;;;;;;;;;5089171;28;20214;-83
2023/03/25 00:26:47;;;;;;;8.27;6.97;;;;;;;;;;5087517;28;20220;-84
2023/03/25 00:29:14;;;;;;;7.53;6.80;;;;;;;;;;5104750;28;20774;-83
2023/03/25 00:31:50;;;;;;;8.13;6.20;;;;;;;;;;5085524;28;20276;-84
2023/03/25 00:34:40;;;;;;;7.53;6.47;;;;;;;;;;5080612;28;20179;-82
2023/03/25 00:37:07;;;;;;;8.87;6.90;;;;;;;;;;5100883;27;20173;-83
2023/03/25 00:39:34;;;;;;;11.83;7.43;;;;;;;;;;5106970;28;20225;-83
2023/03/25 00:42:02;;;;;;;9.00;6.70;;;;;;;;;;5093053;28;20204;-85
2023/03/25 00:44:30;;;;;;;8.40;7.57;;;;;;;;;;5092074;28;20547;-83
2023/03/25 00:46:56;;;;;;;9.63;7.47;;;;;;;;;;5090825;28;20168;-83
2023/03/25 00:49:23;;;;;;;9.87;6.73;;;;;;;;;;5076464;28;20255;-83
2023/03/25 00:51:52;;;;;;;10.77;7.70;;;;;;;;;;5091205;28;20180;-83
2023/03/25 00:54:34;;;;;;;9.23;7.63;;;;;;;;;;5093121;28;20602;-82
2023/03/25 00:57:00;;;;;;;9.40;7.03;;;;;;;;;;5110336;28;20191;-83
2023/03/25 00:59:27;;;;;;;8.50;7.57;;;;;;;;;;5084351;28;20184;-84
2023/03/25 01:01:55;;;;;;;8.73;7.83;;;;;;;;;;5093332;28;20231;-82
2023/03/25 01:04:21;;;;;;;9.60;7.87;;;;;;;;;;5092417;28;20176;-83
2023/03/25 01:06:50;;;;;;;11.83;8.53;;;;;;;;;;5075582;28;20245;-82
2023/03/25 01:09:17;;;;;;;10.07;8.43;;;;;;;;;;5081365;28;20189;-83
2023/03/25 01:11:43;;;;;;;9.00;8.00;;;;;;;;;;5085172;28;20183;-83
2023/03/25 01:14:15;;;;;;;10.17;8.37;;;;;;;;;;5092868;28;20179;-84
2023/03/25 01:16:41;;;;;;;13.97;8.63;;;;;;;;;;5106972;28;20616;-84
2023/03/25 01:19:09;;;;;;;10.67;8.47;;;;;;;;;;5086729;28;20783;-83
2023/03/25 01:21:35;;;;;;;10.13;8.40;;;;;;;;;;5081344;28;20188;-83
2023/03/25 01:24:04;;;;;;;11.83;9.20;;;;;;;;;;5094268;28;20184;-84
2023/03/25 01:26:31;;;;;;;9.57;8.33;;;;;;;;;;5099874;28;20180;-83
2023/03/25 01:28:57;;;;;;;9.73;8.73;;;;;;;;;;5100100;28;20175;-82
2023/03/25 01:31:24;;;;;;;9.37;8.17;;;;;;;;;;5082354;28;20206;-83
2023/03/25 01:33:51;;;;;;;11.77;9.00;;;;;;;;;;5090989;28;20172;-83
2023/03/25 01:36:17;;;;;;;9.17;8.10;;;;;;;;;;5092097;28;20203;-84
2023/03/25 01:38:43;;;;;;;10.93;8.43;;;;;;;;;;5089712;28;20192;-83
2023/03/25 01:41:10;;;;;;;11.53;8.70;;;;;;;;;;5086132;28;20183;-83
2023/03/25 01:43:36;;;;;;;15.37;9.63;;;;;;;;;;5073349;28;20214;-82
2023/03/25 01:46:02;;;;;;;12.47;8.90;;;;;;;;;;5074878;28;20177;-81
2023/03/25 01:48:37;;;;;;;10.67;9.00;;;;;;;;;;5093223;28;20195;-83
2023/03/25 01:51:06;;;;;;;12.57;9.03;;;;;;;;;;5087238;28;20187;-82
2023/03/25 01:53:32;;;;;;;11.87;9.73;;;;;;;;;;5108291;28;20270;-83
2023/03/25 01:56:04;;;;;;;11.03;9.40;;;;;;;;;;5109751;28;20508;-83
2023/03/25 01:58:31;;;;;;;11.20;9.43;;;;;;;;;;5090818;28;20176;-83
2023/03/25 02:00:57;;;;;;;10.37;9.17;;;;;;;;;;5096990;28;20185;-81
2023/03/25 02:03:24;;;;;;;15.33;10.13;;;;;;;;;;5078549;28;20223;-84
2023/03/25 02:05:54;;;;;;;10.83;9.63;;;;;;;;;;5098890;28;20302;-83
2023/03/25 02:08:22;;;;;;;14.43;9.77;;;;;;;;;;5108471;28;20180;-83
2023/03/25 02:10:49;;;;;;;11.27;9.43;;;;;;;;;;5079720;28;20333;-82
2023/03/25 02:13:16;;;;;;;12.90;9.73;;;;;;;;;;5089838;28;20538;-83
2023/03/25 02:15:58;;;;;;;13.73;10.40;;;;;;;;;;5109469;28;20313;-83
2023/03/25 02:18:47;;;;;;;13.20;10.57;;;;;;;;;;5082691;28;20180;-83
2023/03/25 02:21:22;;;;;;;12.23;9.87;;;;;;;;;;5084043;28;20183;-82
2023/03/25 02:23:48;;;;;;;10.77;9.03;;;;;;;;;;5090426;28;20218;-83
2023/03/25 02:26:35;;;;;;;11.27;9.40;;;;;;;;;;5091421;28;20669;-82
2023/03/25 02:29:01;;;;;;;10.97;8.73;;;;;;;;;;5090384;28;20172;-82
2023/03/25 02:31:31;;;;;;;13.10;10.00;;;;;;;;;;5109279;28;20542;-82
2023/03/25 02:34:06;;;;;;;12.53;9.47;;;;;;;;;;5086793;28;20171;-84
2023/03/25 02:36:35;;;;;;;11.97;9.90;;;;;;;;;;5081591;28;20195;-83
2023/03/25 02:39:10;;;;;;;11.50;10.30;;;;;;;;;;5100796;28;20695;-83
2023/03/25 02:41:36;;;;;;;16.40;10.77;;;;;;;;;;5084276;28;20211;-84
2023/03/25 02:44:11;;;;;;;14.30;10.20;;;;;;;;;;5109491;28;20545;-83
2023/03/25 02:46:39;;;;;;;12.77;10.23;;;;;;;;;;5104986;28;20254;-84
2023/03/25 02:49:08;;;;;;;14.63;11.07;;;;;;;;;;5081987;28;20176;-83
2023/03/25 02:51:37;;;;;;;14.53;10.67;;;;;;;;;;5085135;28;20190;-84
2023/03/25 02:54:05;;;;;;;11.47;9.90;;;;;;;;;;5089683;28;20267;-83
2023/03/25 02:56:32;;;;;;;14.20;10.80;;;;;;;;;;5090234;28;20221;-83
2023/03/25 02:58:58;;;;;;;14.50;11.67;;;;;;;;;;5088961;28;20230;-82
2023/03/25 03:01:25;;;;;;;13.47;11.00;;;;;;;;;;5090653;28;20174;-83
2023/03/25 03:03:52;;;;;;;14.43;11.17;;;;;;;;;;5109512;28;20199;-83
2023/03/25 03:06:18;;;;;;;17.23;11.33;;;;;;;;;;5107426;28;20188;-82
2023/03/25 03:08:44;;;;;;;12.07;10.27;;;;;;;;;;5089822;28;20182;-84
2023/03/25 03:11:29;;;;;;;14.50;11.07;;;;;;;;;;5090598;28;20264;-83
2023/03/25 03:14:14;;;;;;;12.63;11.17;;;;;;;;;;5080354;28;20176;-82
2023/03/25 03:16:47;;;;;;;13.20;10.90;;;;;;;;;;5104269;28;20233;-84
2023/03/25 03:19:33;;;;;;;14.03;10.77;;;;;;;;;;5087601;28;20214;-82
2023/03/25 03:22:02;;;;;;;16.60;11.93;;;;;;;;;;5070761;28;20232;-82
2023/03/25 03:24:36;;;;;;;17.37;12.13;;;;;;;;;;5078039;28;20198;-82
2023/03/25 03:27:13;;;;;;;15.97;12.17;;;;;;;;;;5079759;28;20646;-82
2023/03/25 03:29:52;;;;;;;15.20;13.00;;;;;;;;;;5087932;28;20690;-83
2023/03/25 03:32:27;;;;;;;16.77;12.37;;;;;;;;;;5083383;28;20245;-83
2023/03/25 03:34:55;;;;;;;13.87;12.37;;;;;;;;;;5088454;28;20224;-82
2023/03/25 03:37:31;;;;;;;15.10;12.60;;;;;;;;;;5085611;28;20180;-84
2023/03/25 03:39:57;;;;;;;16.10;13.10;;;;;;;;;;5088084;28;20187;-82
2023/03/25 03:42:27;;;;;;;15.53;12.90;;;;;;;;;;5081362;28;20632;-82
2023/03/25 03:44:58;;;;;;;15.93;13.23;;;;;;;;;;5092165;28;20188;-83
2023/03/25 03:47:28;;;;;;;16.53;13.63;;;;;;;;;;5085681;28;20184;-84
2023/03/25 03:50:08;;;;;;;15.20;13.43;;;;;;;;;;5080255;28;20183;-83
2023/03/25 03:52:37;;;;;;;17.63;14.63;;;;;;;;;;5086522;28;20244;-83
2023/03/25 03:55:09;;;;;;;17.53;13.90;;;;;;;;;;5087376;28;20195;-83
2023/03/25 03:57:44;;;;;;;19.13;13.93;;;;;;;;;;5080455;28;20842;-82
2023/03/25 04:00:29;;;;;;;15.63;13.67;;;;;;;;;;5071108;28;20242;-82
2023/03/25 04:02:58;;;;;;;18.47;13.60;;;;;;;;;;5076983;28;20611;-82
2023/03/25 04:05:29;;;;;;;15.77;13.77;;;;;;;;;;5073787;28;20189;-84
2023/03/25 04:08:01;;;;;;;19.37;14.73;;;;;;;;;;5088314;28;20260;-82
2023/03/25 04:10:39;;;;;;;16.90;13.97;;;;;;;;;;5089870;28;20175;-82
2023/03/25 04:13:07;;;;;;;18.77;15.17;;;;;;;;;;5092551;28;20268;-81
2023/03/25 04:15:33;;;;;;;19.20;15.17;;;;;;;;;;5093697;28;20641;-83
2023/03/25 04:18:00;;;;;;;16.33;14.20;;;;;;;;;;5092155;28;20598;-83
2023/03/25 04:20:28;;;;;;;17.87;15.33;;;;;;;;;;5092473;28;20263;-82
2023/03/25 04:22:54;;;;;;;23.47;15.67;;;;;;;;;;5088522;28;20231;-84
2023/03/25 04:25:20;;;;;;;22.53;15.67;;;;;;;;;;5079440;28;20176;-83
2023/03/25 04:27:47;;;;;;;20.70;15.83;;;;;;;;;;5101457;28;20642;-82
2023/03/25 04:30:16;;;;;;;17.47;15.33;;;;;;;;;;5103929;28;20198;-84
2023/03/25 04:32:45;;;;;;;19.10;16.03;;;;;;;;;;5092923;28;20657;-82
2023/03/25 04:35:15;;;;;;;18.87;16.40;;;;;;;;;;5095669;28;20208;-83
2023/03/25 04:37:44;;;;;;;21.03;16.13;;;;;;;;;;5090710;28;20214;-84
2023/03/25 04:40:12;;;;;;;19.03;16.00;;;;;;;;;;5083790;28;20176;-84
2023/03/25 04:42:41;;;;;;;21.37;15.47;;;;;;;;;;5086484;28;20208;-83
2023/03/25 04:45:12;;;;;;;18.50;15.47;;;;;;;;;;5083810;28;20556;-84
2023/03/25 04:47:43;;;;;;;19.17;15.37;;;;;;;;;;5092101;28;20541;-82
2023/03/25 04:50:30;;;;;;;23.70;16.03;;;;;;;;;;5111345;28;20176;-83
2023/03/25 04:52:59;;;;;;;19.50;15.80;;;;;;;;;;5094456;28;20182;-83
2023/03/25 04:55:25;;;;;;;19.93;14.67;;;;;;;;;;5093143;28;20199;-83
2023/03/25 04:57:53;;;;;;;18.83;15.97;;;;;;;;;;5092904;28;20182;-81
2023/03/25 05:00:23;;;;;;;21.43;16.07;;;;;;;;;;5093085;28;20176;-83
2023/03/25 05:02:54;;;;;;;21.83;15.93;;;;;;;;;;5109334;28;20464;-84
2023/03/25 05:05:22;;;;;;;17.90;15.37;;;;;;;;;;5078739;28;20219;-83
2023/03/25 05:07:50;;;;;;;23.60;17.60;;;;;;;;;;5111165;28;20228;-84
2023/03/25 05:10:17;;;;;;;19.97;16.57;;;;;;;;;;5093126;28;20275;-84
2023/03/25 05:12:44;;;;;;;21.33;17.20;;;;;;;;;;5092184;28;20347;-84
2023/03/25 05:15:11;;;;;;;20.70;17.50;;;;;;;;;;5092177;28;20630;-83
2023/03/25 05:17:38;;;;;;;18.83;16.83;;;;;;;;;;5076046;28;20184;-82
2023/03/25 05:20:07;;;;;;;21.70;17.37;;;;;;;;;;5074075;28;20173;-83
2023/03/25 05:22:33;;;;;;;19.67;16.80;;;;;;;;;;5097863;28;20705;-82
2023/03/25 05:25:01;;;;;;;19.10;15.87;;;;;;;;;;5085717;28;20199;-82
2023/03/25 05:27:29;;;;;;;17.77;15.90;;;;;;;;;;5089183;28;20186;-83
2023/03/25 05:29:57;;;;;;;20.80;17.23;;;;;;;;;;5084875;28;20624;-84
2023/03/25 05:32:28;;;;;;;21.77;16.07;;;;;;;;;;5103584;28;20179;-82
2023/03/25 05:34:55;;;;;;;23.83;18.20;;;;;;;;;;5095528;28;20168;-83
2023/03/25 05:37:21;;;;;;;20.93;17.00;;;;;;;;;;5080782;28;20233;-82
2023/03/25 05:39:47;;;;;;;20.40;16.30;;;;;;;;;;5101775;28;20184;-83
2023/03/25 05:42:13;;;;;;;20.67;16.50;;;;;;;;;;5091533;28;20250;-82
2023/03/25 05:44:45;;;;;;;22.90;16.13;;;;;;;;;;5091467;28;20244;-84
2023/03/25 05:47:12;;;;;;;21.27;15.53;;;;;;;;;;5085378;28;20201;-84
2023/03/25 05:49:40;;;;;;;18.53;15.83;;;;;;;;;;5088812;28;20180;-83
2023/03/25 05:52:08;;;;;;;19.77;15.53;;;;;;;;;;5088622;28;20175;-80
2023/03/25 05:54:37;;;;;;;22.03;16.70;;;;;;;;;;5106957;28;20183;-83
2023/03/25 05:57:04;;;;;;;20.03;16.23;;;;;;;;;;5091295;28;21327;-81
2023/03/25 05:59:30;;;;;;;20.47;16.47;;;;;;;;;;5075162;28;21351;-82
2023/03/25 06:01:56;;;;;;;20.00;15.60;;;;;;;;;;5092500;28;20696;-83
2023/03/25 06:04:22;;;;;;;19.17;16.40;;;;;;;;;;5082133;28;20275;-84
2023/03/25 06:06:48;;;;;;;18.60;15.87;;;;;;;;;;5104610;28;20607;-84
2023/03/25 06:09:16;;;;;;;20.27;16.33;;;;;;;;;;5109701;28;20185;-82
2023/03/25 06:11:42;;;;;;;23.13;16.67;;;;;;;;;;5086134;28;20644;-83
2023/03/25 06:14:09;;;;;;;21.20;16.90;;;;;;;;;;5077616;28;20264;-84
2023/03/25 06:16:35;;;;;;;25.33;17.73;;;;;;;;;;5080298;28;20184;-83
2023/03/25 06:19:01;;;;;;;19.93;16.37;;;;;;;;;;5085928;28;20642;-84
2023/03/25 06:21:28;;;;;;;19.00;15.90;;;;;;;;;;5090427;28;20669;-82
2023/03/25 06:23:54;;;;;;;17.67;15.80;;;;;;;;;;5088474;28;20693;-81
2023/03/25 06:26:21;;;;;;;19.33;14.37;;;;;;;;;;5108674;28;20180;-82
2023/03/25 06:28:47;;;;;;;20.40;16.00;;;;;;;;;;5088966;28;20180;-84
2023/03/25 06:31:17;;;;;;;19.73;14.93;;;;;;;;;;5082381;28;20188;-81
2023/03/25 06:33:44;;;;;;;23.40;15.23;;;;;;;;;;5097226;28;20213;-82
2023/03/25 06:36:11;;;;;;;15.33;13.73;;;;;;;;;;5083026;28;20208;-83
2023/03/25 06:38:38;;;;;;;17.87;15.10;;;;;;;;;;5089050;28;20218;-82
2023/03/25 06:41:04;;;;;;;16.60;14.47;;;;;;;;;;5102550;28;20187;-81
2023/03/25 06:43:30;;;;;;;16.40;14.07;;;;;;;;;;5087836;28;20243;-83
2023/03/25 06:45:56;;;;;;;19.07;14.70;;;;;;;;;;5085151;28;20179;-81
2023/03/25 06:48:22;;;;;;;16.73;14.87;;;;;;;;;;5078482;28;20184;-83
2023/03/25 06:50:49;;;;;;;15.53;13.70;;;;;;;;;;5075060;28;20189;-81
2023/03/25 06:53:16;;;;;;;17.63;13.80;;;;;;;;;;5088788;28;20176;-83
2023/03/25 06:55:43;;;;;;;18.43;14.53;;;;;;;;;;5079581;28;20199;-83
2023/03/25 06:58:09;;;;;;;15.23;13.67;;;;;;;;;;5105311;28;20258;-84
2023/03/25 07:00:35;;;;;;;18.87;12.97;;;;;;;;;;5110195;28;20187;-84
2023/03/25 07:03:02;;;;;;;14.80;13.20;;;;;;;;;;5088562;28;20211;-84
2023/03/25 07:05:28;;;;;;;15.97;12.73;;;;;;;;;;5109015;28;20187;-83
2023/03/25 07:07:54;;;;;;;14.77;13.10;;;;;;;;;;5085975;28;20511;-82
2023/03/25 07:10:20;;;;;;;17.00;13.50;;;;;;;;;;5103386;28;20260;-84
2023/03/25 07:15:50;;;;;;;16.33;12.30;;;;;;;;;;5100577;28;20228;-82
2023/03/25 07:18:16;;;;;;;12.97;11.67;;;;;;;;;;5108831;28;20211;-84
2023/03/25 07:20:42;;;;;;;14.63;11.33;;;;;;;;;;5080584;28;20179;-82
2023/03/25 07:23:08;;;;;;;20.40;12.03;;;;;;;;;;5090116;28;20223;-81
2023/03/25 07:25:34;;;;;;;16.53;11.40;;;;;;;;;;5111418;27;20178;-80
2023/03/25 07:28:00;;;;;;;14.97;11.27;;;;;;;;;;5107285;27;20180;-81
2023/03/25 07:30:26;;;;;;;13.97;11.20;;;;;;;;;;5080509;28;20553;-80
2023/03/25 07:32:52;;;;;;;16.23;11.53;;;;;;;;;;5088221;28;20714;-82
2023/03/25 07:38:22;;;;;;;14.97;12.07;;;;;;;;;;5103926;28;20441;-83
2023/03/25 07:40:48;;;;;;;15.13;11.33;;;;;;;;;;5103480;28;20540;-82
2023/03/25 07:43:14;;;;;;;13.23;10.97;;;;;;;;;;5083701;28;20225;-82
2023/03/25 07:45:40;;;;;;;15.57;10.67;;;;;;;;;;5092492;27;20179;-82
2023/03/25 07:48:12;;;;;;;12.27;10.77;;;;;;;;;;5095234;28;20660;-81
2023/03/25 07:50:38;;;;;;;11.70;9.90;;;;;;;;;;5099452;28;20182;-82
2023/03/25 07:53:04;;;;;;;14.57;10.47;;;;;;;;;;5097141;28;20179;-81
2023/03/25 07:55:30;;;;;;;13.80;10.90;;;;;;;;;;5093938;27;20224;-82
2023/03/25 07:58:02;;;;;;;12.10;9.43;;;;;;;;;;5108194;27;20173;-82
2023/03/25 08:00:29;;;;;;;13.70;9.27;;;;;;;;;;5094267;28;20543;-82
2023/03/25 08:02:55;;;;;;;15.93;9.97;;;;;;;;;;5092873;28;20240;-83
2023/03/25 08:05:21;;;;;;;15.70;9.53;;;;;;;;;;5120349;27;20663;-82
2023/03/25 08:07:49;;;;;;;11.10;8.77;;;;;;;;;;5092249;28;20175;-83
2023/03/25 08:10:16;;;;;;;13.37;9.70;;;;;;;;;;5090800;28;20180;-82
2023/03/25 08:12:43;;;;;;;11.83;9.10;;;;;;;;;;5086469;28;20653;-82
2023/03/25 08:15:10;;;;;;;12.67;8.67;;;;;;;;;;5089099;28;20180;-83
2023/03/25 08:17:36;;;;;;;12.80;9.53;;;;;;;;;;5079341;28;20176;-82
2023/03/25 08:20:04;;;;;;;10.20;8.70;;;;;;;;;;5087400;28;20187;-82
2023/03/25 08:22:30;;;;;;;11.83;9.13;;;;;;;;;;5089734;28;20227;-83
2023/03/25 08:24:56;;;;;;;11.53;8.63;;;;;;;;;;5093322;28;20201;-83
2023/03/25 08:27:22;;;;;;;9.90;7.80;;;;;;;;;;5093646;28;20180;-83
2023/03/25 08:29:53;;;;;;;11.90;8.47;;;;;;;;;;5075450;28;20179;-82
2023/03/25 08:32:26;;;;;;;11.63;8.43;;;;;;;;;;5080473;28;20180;-83
2023/03/25 08:34:52;;;;;;;10.37;7.37;;;;;;;;;;5081847;28;20188;-83
2023/03/25 08:37:18;;;;;;;11.23;8.07;;;;;;;;;;5088099;28;20280;-83
2023/03/25 08:39:45;;;;;;;11.67;7.83;;;;;;;;;;5109766;28;20184;-82
2023/03/25 08:42:12;;;;;;;10.17;7.23;;;;;;;;;;5111389;28;20268;-84
2023/03/25 08:44:38;;;;;;;9.77;7.60;;;;;;;;;;5091901;28;20223;-82
2023/03/25 08:47:05;;;;;;;11.50;7.93;;;;;;;;;;5091100;28;20663;-83
2023/03/25 08:49:31;;;;;;;8.90;6.70;;;;;;;;;;5079857;28;20275;-82
2023/03/25 08:51:57;;;;;;;11.43;6.73;;;;;;;;;;5100274;28;20256;-83
2023/03/25 08:54:24;;;;;;;7.97;6.33;;;;;;;;;;5084607;28;20236;-82
2023/03/25 08:56:51;;;;;;;11.47;7.13;;;;;;;;;;5082213;28;20168;-82
2023/03/25 08:59:19;;;;;;;10.83;6.60;;;;;;;;;;5108194;28;20168;-83
2023/03/25 09:01:45;;;;;;;8.10;6.23;;;;;;;;;;5090245;28;20179;-83
2023/03/25 09:04:11;;;;;;;9.33;6.63;;;;;;;;;;5087080;28;20609;-82
2023/03/25 09:06:38;;;;;;;10.90;6.53;;;;;;;;;;5081309;28;20186;-83
2023/03/25 09:09:04;;;;;;;10.50;6.97;;;;;;;;;;5090448;28;20188;-83
2023/03/25 09:11:31;;;;;;;8.13;7.03;;;;;;;;;;5087052;28;20176;-83
2023/03/25 09:13:57;;;;;;;9.53;7.00;;;;;;;;;;5082390;28;20673;-82
2023/03/25 09:16:23;;;;;;;10.57;6.90;;;;;;;;;;5088985;28;20186;-83
2023/03/25 09:18:49;;;;;;;9.47;6.50;;;;;;;;;;5083240;28;20181;-82
2023/03/25 09:21:15;;;;;;;7.73;5.33;;;;;;;;;;5080275;28;20600;-83
2023/03/25 09:23:42;;;;;;;8.40;5.60;;;;;;;;;;5088460;28;20700;-84
2023/03/25 09:29:11;;;;;;;12.20;6.67;;;;;;;;;;5095672;28;20194;-81
2023/03/25 09:31:38;;;;;;;8.10;5.30;;;;;;;;;;5097420;28;20180;-82
2023/03/25 09:34:04;;;;;;;9.40;6.17;;;;;;;;;;5079119;28;20616;-83
2023/03/25 09:36:30;;;;;;;9.33;6.00;;;;;;;;;;5087186;28;20258;-84
2023/03/25 09:38:57;;;;;;;13.17;7.17;;;;;;;;;;5109926;28;20406;-82
2023/03/25 09:41:23;;;;;;;9.50;6.23;;;;;;;;;;5088666;28;20694;-84
2023/03/25 09:43:50;;;;;;;9.60;5.57;;;;;;;;;;5081508;28;20212;-84
2023/03/25 09:46:16;;;;;;;7.90;6.23;;;;;;;;;;5098486;28;20855;-84
2023/03/25 09:48:44;;;;;;;9.17;5.83;;;;;;;;;;5077306;28;20187;-82
2023/03/25 09:51:30;;;;;;;6.30;5.33;;;;;;;;;;5078610;28;20195;-85
2023/03/25 09:54:15;;;;;;;7.93;5.77;;;;;;;;;;5090245;28;20275;-85
2023/03/25 09:56:43;;;;;;;7.57;6.33;;;;;;;;;;5105118;28;20301;-83
2023/03/25 09:59:19;;;;;;;9.10;6.23;;;;;;;;;;5086660;28;20179;-83
2023/03/25 10:01:54;;;;;;;8.27;5.73;;;;;;;;;;5076969;28;20279;-81
2023/03/25 10:04:36;;;;;;;10.87;6.57;;;;;;;;;;5080255;28;20175;-80
2023/03/25 10:07:20;;;;;;;11.40;5.57;;;;;;;;;;5083703;28;20242;-82
2023/03/25 10:09:50;;;;;;;6.80;4.97;;;;;;;;;;5088152;28;20244;-83
2023/03/25 10:12:35;;;;;;;9.10;6.00;;;;;;;;;;5083632;28;20555;-82
2023/03/25 10:15:05;;;;;;;7.93;4.97;;;;;;;;;;5080123;28;20178;-82
2023/03/25 10:17:55;;;;;;;8.87;5.50;;;;;;;;;;5090238;28;20183;-83
2023/03/25 10:20:40;;;;;;;9.43;5.13;;;;;;;;;;5087490;28;20184;-81
2023/03/25 10:23:26;;;;;;;7.60;4.53;;;;;;;;;;5078948;27;20224;-83
2023/03/25 10:25:55;;;;;;;7.13;5.00;;;;;;;;;;5079314;28;20341;-83
2023/03/25 10:28:32;;;;;;;7.47;5.33;;;;;;;;;;5085406;28;20216;-82
2023/03/25 10:30:59;;;;;;;6.77;4.57;;;;;;;;;;5088662;28;20190;-82
2023/03/25 10:33:39;;;;;;;7.37;4.07;;;;;;;;;;5090232;28;20184;-82
2023/03/25 10:36:07;;;;;;;7.50;4.20;;;;;;;;;;5107561;28;20180;-81
2023/03/25 10:38:34;;;;;;;9.27;5.00;;;;;;;;;;5075964;28;20184;-81
2023/03/25 10:41:23;;;;;;;7.40;5.90;;;;;;;;;;5077419;28;20512;-81
2023/03/25 10:43:50;;;;;;;8.97;6.20;;;;;;;;;;5097438;28;20219;-82
2023/03/25 10:46:54;;;;;;;5.57;3.80;;;;;;;;;;5081020;28;20202;-80
2023/03/25 10:49:22;;;;;;;5.63;2.93;;;;;;;;;;5021885;28;20195;-83
2023/03/25 10:51:53;;;;;;;4.47;3.70;;;;;;;;;;5027736;28;20182;-81
2023/03/25 10:54:21;;;;;;;6.63;3.67;;;;;;;;;;5026279;28;20190;-84
2023/03/25 10:56:51;;;;;;;8.70;3.67;;;;;;;;;;5007717;28;20269;-81
2023/03/25 10:59:30;;;;;;;4.87;3.77;;;;;;;;;;5022249;28;20193;-83
2023/03/25 11:01:57;;;;;;;6.20;3.90;;;;;;;;;;5022250;28;20279;-83
2023/03/25 11:04:26;;;;;;;8.60;4.47;;;;;;;;;;5007746;28;20179;-85
2023/03/25 11:06:57;;;;;;;8.43;3.97;;;;;;;;;;5016176;28;20194;-82
2023/03/25 11:09:31;;;;;;;6.80;3.73;;;;;;;;;;5015472;28;20243;-84
2023/03/25 11:12:00;;;;;;;7.60;3.80;;;;;;;;;;5019306;28;20238;-82
2023/03/25 11:14:29;;;;;;;5.50;3.63;;;;;;;;;;5022110;28;20568;-83
2023/03/25 11:17:01;;;;;;;8.13;3.70;;;;;;;;;;5024132;28;20182;-83
2023/03/25 11:19:27;;;;;;;6.40;3.70;;;;;;;;;;5042184;28;20183;-82
2023/03/25 11:21:58;;;;;;;6.50;3.90;;;;;;;;;;5089819;28;20550;-82
2023/03/25 11:24:29;;;;;;;6.90;3.83;;;;;;;;;;5105309;28;20249;-82
2023/03/25 11:26:55;;;;;;;4.47;3.97;;;;;;;;;;5088385;28;20176;-82
2023/03/25 11:29:24;;;;;;;11.87;5.07;;;;;;;;;;5081032;28;20278;-81
2023/03/25 11:31:58;;;;;;;6.67;4.00;;;;;;;;;;5108279;28;20634;-81
2023/03/25 11:34:25;;;;;;;4.90;3.77;;;;;;;;;;5089502;28;20183;-80
2023/03/25 11:36:54;;;;;;;5.07;3.53;;;;;;;;;;5091509;28;20280;-81
2023/03/25 11:39:23;;;;;;;6.03;3.37;;;;;;;;;;5105705;28;20342;-82
2023/03/25 11:41:49;;;;;;;7.00;3.60;;;;;;;;;;5108888;28;20187;-83
2023/03/25 11:44:21;;;;;;;6.07;3.53;;;;;;;;;;5078326;28;20184;-83
2023/03/25 11:46:50;;;;;;;8.07;4.30;;;;;;;;;;5082553;28;20319;-83
2023/03/25 11:49:19;;;;;;;8.13;3.47;;;;;;;;;;5089717;28;20184;-83
2023/03/25 11:51:45;;;;;;;7.50;3.90;;;;;;;;;;5087905;28;20552;-83
2023/03/25 11:54:14;;;;;;;5.57;3.80;;;;;;;;;;5100563;28;20203;-83
2023/03/25 11:56:41;;;;;;;6.07;3.13;;;;;;;;;;5081325;28;20233;-82
2023/03/25 11:59:32;;;;;;;5.03;3.47;;;;;;;;;;5102914;28;20214;-83
2023/03/25 12:02:02;;;;;;;7.30;3.70;;;;;;;;;;5100999;28;20339;-82
2023/03/25 12:04:30;;;;;;;8.23;3.17;;;;;;;;;;5082254;28;20215;-83
2023/03/25 12:07:00;;;;;;;5.17;3.70;;;;;;;;;;5104038;28;20665;-83
2023/03/25 12:09:28;;;;;;;6.17;4.03;;;;;;;;;;5080971;28;20180;-82
2023/03/25 12:11:57;;;;;;;5.10;3.50;;;;;;;;;;5084323;28;20181;-82
2023/03/25 12:14:35;;;;;;;5.37;3.67;;;;;;;;;;5105665;28;20179;-83
2023/03/25 12:17:20;;;;;;;8.00;3.77;;;;;;;;;;5080952;28;20226;-83
2023/03/25 12:19:52;;;;;;;8.20;4.10;;;;;;;;;;5101131;28;20180;-82
2023/03/25 12:22:49;;;;;;;5.13;3.47;;;;;;;;;;5088531;28;20262;-82
2023/03/25 12:25:26;;;;;;;6.40;3.87;;;;;;;;;;5088130;28;20184;-83
2023/03/25 12:27:58;;;;;;;6.10;3.60;;;;;;;;;;5080312;28;20181;-82
2023/03/25 12:30:32;;;;;;;6.37;3.87;;;;;;;;;;5089473;28;20182;-82
2023/03/25 12:33:20;;;;;;;5.80;3.90;;;;;;;;;;5085002;28;20668;-82
2023/03/25 12:36:07;;;;;;;5.83;3.60;;;;;;;;;;5091714;28;20221;-82
2023/03/25 12:38:53;;;;;;;5.30;3.87;;;;;;;;;;5097717;28;20180;-82
2023/03/25 12:41:22;;;;;;;4.13;2.97;;;;;;;;;;5098121;28;20257;-83
2023/03/25 12:43:48;;;;;;;5.80;3.17;;;;;;;;;;5080888;28;20241;-83
2023/03/25 12:46:14;;;;;;;7.47;3.70;;;;;;;;;;5080660;28;20556;-82
2023/03/25 12:48:54;;;;;;;7.83;3.77;;;;;;;;;;5090955;28;20553;-83
2023/03/25 12:51:26;;;;;;;8.20;3.93;;;;;;;;;;5091298;28;20224;-87
2023/03/25 12:54:02;;;;;;;5.30;3.83;;;;;;;;;;5086978;28;20186;-84
2023/03/25 12:56:41;;;;;;;8.07;4.10;;;;;;;;;;5090940;28;20554;-84
2023/03/25 12:59:10;;;;;;;10.87;3.93;;;;;;;;;;5096791;28;20188;-84
2023/03/25 13:01:54;;;;;;;7.20;4.33;;;;;;;;;;5080747;28;20225;-84
2023/03/25 13:04:37;;;;;;;9.40;4.20;;;;;;;;;;5079764;28;20200;-85
2023/03/25 13:07:11;;;;;;;8.07;4.40;;;;;;;;;;5090774;28;20190;-84
2023/03/25 13:09:46;;;;;;;8.23;4.20;;;;;;;;;;5084474;28;20716;-85
2023/03/25 13:12:18;;;;;;;6.10;4.90;;;;;;;;;;5111052;28;20167;-87
2023/03/25 13:14:50;;;;;;;11.20;6.23;;;;;;;;;;5091799;28;20218;-88
2023/03/25 13:17:43;;;;;;;7.87;6.30;;;;;;;;;;5092279;28;20180;-88
2023/03/25 13:20:09;;;;;;;10.33;6.37;;;;;;;;;;5088373;28;20191;-87
2023/03/25 13:22:45;;;;;;;13.47;6.87;;;;;;;;;;5037166;28;1144483;-87
2023/03/25 13:25:19;;;;;;;8.77;5.77;;;;;;;;;;5063247;28;20213;-87
2023/03/25 13:27:48;;;;;;;9.57;6.47;;;;;;;;;;5068755;28;20189;-88
2023/03/25 13:30:21;;;;;;;9.90;6.40;;;;;;;;;;5059410;28;20181;-87
2023/03/25 13:32:53;;;;;;;7.67;5.17;;;;;;;;;;5076269;28;20177;-87
2023/03/25 13:35:26;;;;;;;10.80;5.27;;;;;;;;;;5065264;28;20181;-87
2023/03/25 13:37:55;;;;;;;10.83;5.33;;;;;;;;;;5065810;28;20294;-88
2023/03/25 13:40:23;;;;;;;10.07;5.53;;;;;;;;;;5066207;28;20207;-89
2023/03/25 13:43:05;;;;;;;11.10;5.47;;;;;;;;;;5069418;28;20694;-88
2023/03/25 13:45:34;;;;;;;7.97;4.97;;;;;;;;;;5064149;28;20173;-88
2023/03/25 13:48:10;;;;;;;8.27;5.37;;;;;;;;;;5063811;28;20197;-88
2023/03/25 13:50:36;;;;;;;7.70;5.27;;;;;;;;;;5057823;28;20181;-87
2023/03/25 13:53:24;;;;;;;7.13;5.43;;;;;;;;;;5061690;28;20997;-88
2023/03/25 13:56:09;;;;;;;10.23;5.30;;;;;;;;;;5017232;28;20989;-88
2023/03/25 13:58:57;;;;;;;9.50;5.50;;;;;;;;;;5001810;28;20214;-87
2023/03/25 14:01:32;;;;;;;9.40;5.20;;;;;;;;;;5002083;28;20190;-87
2023/03/25 14:04:09;;;;;;;10.50;5.63;;;;;;;;;;5011240;28;20726;-87
2023/03/25 14:07:04;;;;;;;9.77;5.30;;;;;;;;;;4999337;28;20229;-86
2023/03/25 14:09:51;;;;;;;8.47;5.00;;;;;;;;;;4964836;28;20212;-86
2023/03/25 14:12:19;;;;;;;10.67;5.07;;;;;;;;;;4969394;28;20573;-86
2023/03/25 14:14:49;;;;;;;8.60;5.33;;;;;;;;;;4954097;28;20317;-87
2023/03/25 14:17:17;;;;;;;7.87;5.80;;;;;;;;;;4953218;28;20189;-87
2023/03/25 14:19:47;;;;;;;8.27;5.80;;;;;;;;;;4964645;28;20281;-86
2023/03/25 14:22:15;;;;;;;13.07;6.63;;;;;;;;;;4965124;28;20559;-86
2023/03/25 14:24:42;;;;;;;9.73;5.83;;;;;;;;;;4993498;28;20175;-87
2023/03/25 14:27:23;;;;;;;8.53;5.67;;;;;;;;;;5009925;28;20596;-87
2023/03/25 14:29:55;;;;;;;8.63;5.30;;;;;;;;;;4996723;28;20189;-87
2023/03/25 14:32:22;;;;;;;7.73;4.93;;;;;;;;;;5013020;28;20195;-87
2023/03/25 14:34:50;;;;;;;6.50;4.60;;;;;;;;;;5034611;28;20178;-87
2023/03/25 14:37:25;;;;;;;6.20;4.67;;;;;;;;;;5029455;28;20189;-87
2023/03/25 14:39:56;;;;;;;7.50;4.53;;;;;;;;;;5039709;28;20280;-87
2023/03/25 14:42:24;;;;;;;6.67;4.00;;;;;;;;;;5047340;28;20219;-88
2023/03/25 14:44:53;;;;;;;11.67;3.30;;;;;;;;;;5034563;28;20278;-87
2023/03/25 14:47:19;;;;;;;4.07;2.27;;;;;;;;;;5084663;28;20211;-87
2023/03/25 14:50:05;;;;;;;5.17;2.07;;;;;;;;;;5090815;28;20291;-85
2023/03/25 14:52:31;;;;;;;3.50;1.67;;;;;;;;;;5091255;28;20187;-83
2023/03/25 14:55:01;;;;;;;7.27;1.90;;;;;;;;;;5090438;28;20174;-85
2023/03/25 14:57:29;;;;;;;2.77;1.60;;;;;;;;;;5091008;28;20229;-85
2023/03/25 15:00:00;;;;;;;3.30;1.60;;;;;;;;;;5085486;28;20180;-85